createdAt,value
2023-04-02T00:00:17.501Z,8.63
2023-04-02T00:03:20.652Z,8.63
2023-04-02T00:06:40.722Z,8.63
2023-04-02T00:09:44.481Z,8.63
2023-04-02T00:12:44.478Z,8.59
2023-04-02T00:15:44.496Z,8.64
2023-04-02T00:18:44.473Z,8.67
2023-04-02T00:21:51.520Z,8.65
2023-04-02T00:24:52.477Z,8.63
2023-04-02T00:27:52.496Z,8.62
2023-04-02T00:30:52.456Z,8.60
2023-04-02T00:33:52.516Z,8.59
2023-04-02T00:36:53.516Z,8.58
2023-04-02T00:39:53.469Z,8.56
2023-04-02T00:42:53.495Z,8.53
2023-04-02T00:45:57.506Z,8.49
2023-04-02T00:49:04.472Z,8.45
2023-04-02T00:52:10.461Z,8.28
2023-04-02T00:55:17.518Z,8.42
2023-04-02T00:58:17.459Z,8.35
2023-04-02T01:01:17.583Z,8.40
2023-04-02T01:04:18.476Z,8.44
2023-04-02T01:07:21.494Z,8.47
2023-04-02T01:10:30.471Z,8.40
2023-04-02T01:14:04.484Z,8.47
2023-04-02T01:17:22.514Z,8.47
2023-04-02T01:20:36.527Z,8.46
2023-04-02T01:23:54.499Z,8.47
2023-04-02T01:27:10.506Z,8.51
2023-04-02T01:30:11.470Z,8.52
2023-04-02T01:33:04.586Z,8.50
2023-04-02T01:35:52.537Z,8.51
2023-04-02T01:38:52.573Z,8.52
2023-04-02T01:42:01.475Z,8.54
2023-04-02T01:45:05.447Z,8.41
2023-04-02T01:48:05.608Z,8.52
2023-04-02T01:51:07.465Z,8.52
2023-04-02T01:54:07.475Z,8.52
2023-04-02T01:57:07.462Z,8.50
2023-04-02T02:00:08.509Z,8.35
2023-04-02T02:03:09.567Z,8.46
2023-04-02T02:06:09.501Z,8.45
2023-04-02T02:09:14.497Z,8.43
2023-04-02T02:12:16.482Z,8.31
2023-04-02T02:15:16.489Z,8.35
2023-04-02T02:18:18.502Z,8.43
2023-04-02T02:21:19.509Z,8.41
2023-04-02T02:24:23.480Z,8.42
2023-04-02T02:27:35.472Z,8.45
2023-04-02T02:30:48.522Z,8.45
2023-04-02T02:33:57.500Z,8.38
2023-04-02T02:37:12.449Z,8.46
2023-04-02T02:40:13.472Z,8.44
2023-04-02T02:43:15.512Z,8.46
2023-04-02T02:46:18.575Z,8.34
2023-04-02T02:49:19.500Z,8.43
2023-04-02T02:52:22.465Z,8.42
2023-04-02T02:55:35.549Z,8.38
2023-04-02T02:58:41.487Z,8.32
2023-04-02T03:01:43.574Z,8.25
2023-04-02T03:04:43.493Z,8.27
2023-04-02T03:07:43.501Z,8.21
2023-04-02T03:10:53.487Z,8.31
2023-04-02T03:13:53.486Z,8.32
2023-04-02T03:17:00.514Z,8.34
2023-04-02T03:20:00.477Z,8.33
2023-04-02T03:23:17.952Z,8.31
2023-04-02T03:26:33.514Z,8.30
2023-04-02T03:29:30.793Z,8.11
2023-04-02T03:32:46.529Z,8.25
2023-04-02T03:36:21.547Z,8.18
2023-04-02T03:39:39.525Z,8.05
2023-04-02T03:42:41.471Z,8.08
2023-04-02T03:45:45.507Z,8.05
2023-04-02T03:48:51.509Z,8.01
2023-04-02T03:51:58.517Z,7.95
2023-04-02T03:54:58.491Z,7.89
2023-04-02T03:58:18.480Z,7.89
2023-04-02T04:01:31.527Z,7.90
2023-04-02T04:04:32.544Z,7.94
2023-04-02T04:07:43.500Z,7.96
2023-04-02T04:10:44.573Z,7.95
2023-04-02T04:13:57.495Z,8.00
2023-04-02T04:17:10.474Z,8.05
2023-04-02T04:20:21.496Z,8.08
2023-04-02T04:23:23.507Z,8.11
2023-04-02T04:26:26.521Z,8.13
2023-04-02T04:29:28.510Z,8.20
2023-04-02T04:32:40.560Z,8.22
2023-04-02T04:35:57.573Z,8.28
2023-04-02T04:39:05.522Z,8.33
2023-04-02T04:42:05.493Z,8.38
2023-04-02T04:45:14.472Z,8.42
2023-04-02T04:48:19.498Z,8.45
2023-04-02T04:51:22.496Z,8.51
2023-04-02T04:54:28.497Z,8.54
2023-04-02T04:57:49.469Z,8.56
2023-04-02T05:01:08.498Z,8.58
2023-04-02T05:04:17.524Z,8.62
2023-04-02T05:07:27.470Z,8.65
2023-04-02T05:10:31.507Z,8.66
2023-04-02T05:13:50.488Z,8.61
2023-04-02T05:17:01.519Z,8.54
2023-04-02T05:20:18.515Z,8.71
2023-04-02T05:23:28.458Z,8.73
2023-04-02T05:26:43.484Z,8.77
2023-04-02T05:29:47.508Z,8.84
2023-04-02T05:32:49.536Z,8.86
2023-04-02T05:35:56.486Z,8.91
2023-04-02T05:39:01.480Z,8.96
2023-04-02T05:42:01.468Z,9.02
2023-04-02T05:45:37.650Z,9.07
2023-04-02T05:48:47.462Z,9.13
2023-04-02T05:51:57.074Z,9.23
2023-04-02T05:55:32.805Z,9.34
2023-04-02T05:58:50.525Z,9.47
2023-04-02T06:02:02.530Z,9.60
2023-04-02T06:05:29.485Z,9.71
2023-04-02T06:08:37.523Z,9.86
2023-04-02T06:11:48.461Z,9.92
2023-04-02T06:14:48.546Z,10.09
2023-04-02T06:18:17.521Z,10.19
2023-04-02T06:21:18.487Z,10.27
2023-04-02T06:24:18.465Z,10.41
2023-04-02T06:27:19.467Z,10.51
2023-04-02T06:30:27.536Z,10.61
2023-04-02T06:33:27.517Z,10.69
2023-04-02T06:36:27.484Z,10.73
2023-04-02T06:39:38.476Z,10.95
2023-04-02T06:42:43.524Z,11.24
2023-04-02T06:45:47.574Z,11.46
2023-04-02T06:48:49.484Z,11.59
2023-04-02T06:51:50.476Z,11.86
2023-04-02T06:54:51.552Z,12.00
2023-04-02T06:57:51.523Z,12.01
2023-04-02T07:00:57.528Z,12.12
2023-04-02T07:03:57.488Z,12.07
2023-04-02T07:06:57.512Z,12.34
2023-04-02T07:09:57.470Z,12.42
2023-04-02T07:12:57.516Z,12.65
2023-04-02T07:16:01.604Z,12.87
2023-04-02T07:19:02.497Z,12.93
2023-04-02T07:22:03.474Z,13.06
2023-04-02T07:25:05.514Z,13.14
2023-04-02T07:28:05.506Z,13.30
2023-04-02T07:31:05.565Z,13.78
2023-04-02T07:34:10.493Z,14.17
2023-04-02T07:37:10.521Z,15.66
2023-04-02T07:40:11.512Z,16.62
2023-04-02T07:43:11.491Z,17.12
2023-04-02T07:46:11.492Z,17.77
2023-04-02T07:49:11.508Z,17.62
2023-04-02T07:52:11.482Z,18.51
2023-04-02T07:55:11.466Z,19.03
2023-04-02T07:58:12.515Z,19.62
2023-04-02T08:01:13.544Z,20.07
2023-04-02T08:04:14.541Z,19.97
2023-04-02T08:07:14.481Z,19.83
2023-04-02T08:10:14.477Z,19.99
2023-04-02T08:13:14.487Z,19.96
2023-04-02T08:16:14.521Z,20.08
2023-04-02T08:19:14.478Z,19.17
2023-04-02T08:22:14.514Z,20.59
2023-04-02T08:25:14.516Z,20.92
2023-04-02T08:28:14.534Z,21.53
2023-04-02T08:31:15.582Z,22.05
2023-04-02T08:34:15.493Z,22.20
2023-04-02T08:37:15.562Z,22.18
2023-04-02T08:40:15.496Z,21.91
2023-04-02T08:43:26.493Z,22.56
2023-04-02T08:46:50.507Z,21.00
2023-04-02T08:49:52.528Z,22.21
2023-04-02T08:52:52.505Z,22.45
2023-04-02T08:56:25.521Z,22.27
2023-04-02T08:59:41.505Z,23.42
2023-04-02T09:02:54.586Z,23.90
2023-04-02T09:05:56.486Z,23.95
2023-04-02T09:08:57.555Z,24.66
2023-04-02T09:12:07.496Z,25.12
2023-04-02T09:15:29.509Z,23.27
2023-04-02T09:18:31.562Z,23.63
2023-04-02T09:21:34.600Z,24.73
2023-04-02T09:24:34.512Z,24.15
2023-04-02T09:27:38.512Z,22.84
2023-04-02T09:30:44.516Z,22.36
2023-04-02T09:34:03.559Z,21.66
2023-04-02T09:37:03.498Z,23.77
2023-04-02T09:40:03.534Z,23.22
2023-04-02T09:43:03.557Z,22.47
2023-04-02T09:46:30.516Z,21.45
2023-04-02T09:49:30.568Z,20.96
2023-04-02T09:52:30.533Z,20.85
2023-04-02T09:55:35.746Z,21.12
2023-04-02T09:58:35.520Z,20.75
2023-04-02T10:01:42.680Z,20.35
2023-04-02T10:05:01.547Z,19.34
2023-04-02T10:08:03.573Z,19.45
2023-04-02T10:11:04.559Z,19.72
2023-04-02T10:14:17.547Z,20.26
2023-04-02T10:17:44.570Z,19.85
2023-04-02T10:20:51.323Z,19.55
2023-04-02T10:23:51.569Z,20.09
2023-04-02T10:27:09.877Z,19.59
2023-04-02T10:30:37.555Z,19.55
2023-04-02T10:33:50.521Z,19.30
2023-04-02T10:37:10.534Z,19.53
2023-04-02T10:40:41.533Z,20.35
2023-04-02T10:43:59.306Z,21.00
2023-04-02T10:47:25.532Z,21.03
2023-04-02T10:50:51.532Z,20.41
2023-04-02T10:54:11.578Z,19.59
2023-04-02T10:57:18.616Z,19.66
2023-04-02T11:00:44.586Z,19.06
2023-04-02T11:04:01.603Z,19.53
2023-04-02T11:07:14.101Z,19.43
2023-04-02T11:10:14.565Z,19.90
2023-04-02T11:13:27.567Z,20.35
2023-04-02T11:16:27.576Z,20.52
2023-04-02T11:19:30.592Z,20.56
2023-04-02T11:22:33.557Z,20.47
2023-04-02T11:25:35.788Z,20.98
2023-04-02T11:28:43.581Z,20.72
2023-04-02T11:31:43.652Z,20.83
2023-04-02T11:35:05.037Z,21.34
2023-04-02T11:38:05.581Z,21.69
2023-04-02T11:41:23.533Z,21.77
2023-04-02T11:44:35.535Z,21.55
2023-04-02T11:47:37.621Z,21.44
2023-04-02T11:50:57.574Z,21.23
2023-04-02T11:53:57.600Z,20.91
2023-04-02T11:57:07.614Z,21.36
2023-04-02T12:00:19.588Z,20.47
2023-04-02T12:03:37.555Z,19.88
2023-04-02T12:07:41.585Z,20.74
2023-04-02T12:11:02.570Z,20.14
2023-04-02T12:14:04.542Z,18.82
2023-04-02T12:17:05.455Z,17.81
2023-04-02T12:20:33.901Z,19.40
2023-04-02T12:23:39.609Z,19.91
2023-04-02T12:26:57.549Z,19.89
2023-04-02T12:29:57.594Z,20.68
2023-04-02T12:32:57.635Z,21.06
2023-04-02T12:35:59.602Z,21.37
2023-04-02T12:39:01.588Z,21.43
2023-04-02T12:42:01.581Z,22.02
2023-04-02T12:45:04.549Z,22.71
2023-04-02T12:48:04.575Z,22.02
2023-04-02T12:51:04.564Z,22.61
2023-04-02T12:54:05.567Z,21.81
2023-04-02T12:57:05.620Z,21.46
2023-04-02T13:00:12.588Z,20.70
2023-04-02T13:03:21.698Z,19.83
2023-04-02T13:06:36.612Z,19.28
2023-04-02T13:09:47.639Z,19.25
2023-04-02T13:12:48.576Z,19.67
2023-04-02T13:15:49.582Z,18.86
2023-04-02T13:18:51.563Z,18.18
2023-04-02T13:21:51.628Z,18.13
2023-04-02T13:24:51.605Z,17.54
2023-04-02T13:27:51.555Z,17.00
2023-04-02T13:30:51.556Z,16.96
2023-04-02T13:33:51.617Z,16.46
2023-04-02T13:36:51.614Z,16.43
2023-04-02T13:39:51.609Z,16.49
2023-04-02T13:42:51.618Z,16.48
2023-04-02T13:45:52.596Z,16.47
2023-04-02T13:48:52.591Z,16.33
2023-04-02T13:51:56.582Z,15.82
2023-04-02T13:55:07.623Z,15.67
2023-04-02T13:58:08.618Z,15.70
2023-04-02T14:01:08.668Z,15.71
2023-04-02T14:04:08.655Z,15.69
2023-04-02T14:07:24.582Z,15.90
2023-04-02T14:10:43.629Z,16.03
2023-04-02T14:14:19.276Z,16.07
2023-04-02T14:17:41.646Z,16.27
2023-04-02T14:21:12.617Z,16.40
2023-04-02T14:24:22.587Z,16.36
2023-04-02T14:27:29.604Z,16.17
2023-04-02T14:31:04.587Z,16.17
2023-04-02T14:34:32.605Z,16.47
2023-04-02T14:37:51.581Z,16.88
2023-04-02T14:41:13.626Z,16.80
2023-04-02T14:44:20.627Z,16.36
2023-04-02T14:47:58.620Z,16.17
2023-04-02T14:50:58.587Z,16.19
2023-04-02T14:54:09.609Z,15.85
2023-04-02T14:57:13.617Z,15.80
2023-04-02T15:00:19.628Z,15.63
2023-04-02T15:03:33.704Z,15.56
2023-04-02T15:06:37.605Z,15.47
2023-04-02T15:09:56.599Z,15.51
2023-04-02T15:12:57.637Z,15.43
2023-04-02T15:16:02.674Z,15.31
2023-04-02T15:19:13.621Z,15.26
2023-04-02T15:22:40.620Z,15.21
2023-04-02T15:26:01.660Z,15.12
2023-04-02T15:29:07.558Z,14.89
2023-04-02T15:32:16.651Z,14.69
2023-04-02T15:35:51.596Z,14.49
2023-04-02T15:38:58.590Z,14.33
2023-04-02T15:42:22.637Z,14.13
2023-04-02T15:45:25.648Z,13.95
2023-04-02T15:48:37.607Z,13.86
2023-04-02T15:51:43.639Z,13.81
2023-04-02T15:54:58.607Z,13.79
2023-04-02T15:58:22.653Z,13.75
2023-04-02T16:01:44.612Z,13.71
2023-04-02T16:05:19.629Z,13.60
2023-04-02T16:08:47.605Z,13.51
2023-04-02T16:11:47.650Z,13.43
2023-04-02T16:14:58.596Z,13.39
2023-04-02T16:17:59.686Z,13.35
2023-04-02T16:21:04.630Z,13.45
2023-04-02T16:24:04.629Z,13.46
2023-04-02T16:27:29.648Z,13.47
2023-04-02T16:30:29.604Z,13.45
2023-04-02T16:33:32.612Z,13.35
2023-04-02T16:37:03.623Z,13.21
2023-04-02T16:40:14.631Z,13.05
2023-04-02T16:43:24.625Z,12.85
2023-04-02T16:46:43.737Z,12.74
2023-04-02T16:50:03.603Z,12.43
2023-04-02T16:53:33.606Z,12.19
2023-04-02T16:56:51.668Z,11.92
2023-04-02T17:00:03.660Z,11.78
2023-04-02T17:03:03.670Z,11.63
2023-04-02T17:06:26.637Z,11.48
2023-04-02T17:09:29.628Z,11.37
2023-04-02T17:12:40.634Z,11.29
2023-04-02T17:15:47.609Z,11.21
2023-04-02T17:18:47.595Z,11.07
2023-04-02T17:21:48.637Z,10.88
2023-04-02T17:25:17.605Z,10.87
2023-04-02T17:28:17.641Z,10.71
2023-04-02T17:31:30.808Z,10.60
2023-04-02T17:34:32.591Z,10.36
2023-04-02T17:37:47.662Z,10.40
2023-04-02T17:41:02.620Z,10.31
2023-04-02T17:44:18.635Z,10.18
2023-04-02T17:47:53.624Z,10.06
2023-04-02T17:51:36.625Z,9.89
2023-04-02T17:54:50.636Z,9.71
2023-04-02T17:58:07.660Z,9.58
2023-04-02T18:01:14.659Z,9.48
2023-04-02T18:04:43.629Z,9.32
2023-04-02T18:08:19.627Z,9.23
2023-04-02T18:12:04.654Z,9.10
2023-04-02T18:16:01.643Z,8.97
2023-04-02T18:19:22.615Z,8.79
2023-04-02T18:22:28.653Z,8.68
2023-04-02T18:25:56.643Z,8.59
2023-04-02T18:29:03.612Z,8.51
2023-04-02T18:32:13.608Z,8.02
2023-04-02T18:35:28.710Z,8.28
2023-04-02T18:38:45.632Z,8.21
2023-04-02T18:41:59.636Z,8.11
2023-04-02T18:45:17.641Z,8.06
2023-04-02T18:48:24.666Z,7.98
2023-04-02T18:51:30.602Z,7.93
2023-04-02T18:54:52.653Z,7.86
2023-04-02T18:57:53.604Z,7.83
2023-04-02T19:00:55.627Z,7.78
2023-04-02T19:04:26.662Z,7.63
2023-04-02T19:07:29.611Z,7.71
2023-04-02T19:10:47.615Z,7.69
2023-04-02T19:13:47.636Z,7.65
2023-04-02T19:17:02.599Z,7.62
2023-04-02T19:20:08.666Z,7.59
2023-04-02T19:23:23.648Z,7.58
2023-04-02T19:26:29.614Z,7.55
2023-04-02T19:29:45.676Z,7.55
2023-04-02T19:33:04.728Z,7.46
2023-04-02T19:36:11.680Z,7.36
2023-04-02T19:39:13.591Z,7.49
2023-04-02T19:42:27.638Z,7.43
2023-04-02T19:45:54.674Z,7.41
2023-04-02T19:49:29.588Z,7.36
2023-04-02T19:52:29.625Z,7.30
2023-04-02T19:55:29.625Z,7.28
2023-04-02T19:58:42.635Z,7.18
2023-04-02T20:01:42.639Z,7.22
2023-04-02T20:04:42.639Z,7.18
2023-04-02T20:07:44.643Z,7.12
2023-04-02T20:10:44.608Z,7.12
2023-04-02T20:13:44.605Z,7.09
2023-04-02T20:16:46.047Z,7.08
2023-04-02T20:19:45.622Z,6.93
2023-04-02T20:22:45.568Z,7.04
2023-04-02T20:25:45.678Z,7.03
2023-04-02T20:28:45.593Z,7.05
2023-04-02T20:31:45.628Z,7.00
2023-04-02T20:34:46.653Z,7.01
2023-04-02T20:37:48.600Z,7.00
2023-04-02T20:40:48.629Z,7.00
2023-04-02T20:43:49.635Z,6.77
2023-04-02T20:46:49.647Z,6.94
2023-04-02T20:49:49.627Z,6.95
2023-04-02T20:52:49.657Z,6.83
2023-04-02T20:55:49.623Z,6.89
2023-04-02T20:58:50.627Z,6.94
2023-04-02T21:01:50.633Z,6.80
2023-04-02T21:04:50.694Z,6.95
2023-04-02T21:07:50.629Z,6.93
2023-04-02T21:10:50.664Z,6.81
2023-04-02T21:13:50.655Z,6.92
2023-04-02T21:16:50.618Z,6.93
2023-04-02T21:19:50.615Z,6.95
2023-04-02T21:22:50.639Z,6.95
2023-04-02T21:25:50.636Z,6.93
2023-04-02T21:28:50.647Z,6.98
2023-04-02T21:31:44.740Z,6.97
2023-04-02T21:34:44.781Z,6.97
2023-04-02T21:37:45.365Z,6.95
2023-04-02T21:40:45.605Z,6.96
2023-04-02T21:43:45.633Z,6.92
2023-04-02T21:46:53.082Z,6.93
2023-04-02T21:49:54.622Z,6.89
2023-04-02T21:52:54.624Z,6.84
2023-04-02T21:55:54.629Z,6.89
2023-04-02T21:58:54.639Z,6.87
2023-04-02T22:02:02.653Z,6.87
2023-04-02T22:05:02.644Z,6.86
2023-04-02T22:08:02.595Z,6.87
2023-04-02T22:11:02.616Z,6.73
2023-04-02T22:14:03.670Z,6.81
2023-04-02T22:17:04.795Z,6.79
2023-04-02T22:20:04.584Z,6.65
2023-04-02T22:23:04.608Z,6.75
2023-04-02T22:26:05.633Z,6.74
2023-04-02T22:29:05.659Z,6.73
2023-04-02T22:32:05.649Z,6.63
2023-04-02T22:35:05.587Z,6.69
2023-04-02T22:38:05.603Z,6.66
2023-04-02T22:41:05.594Z,6.63
2023-04-02T22:44:05.618Z,6.61
2023-04-02T22:47:05.594Z,6.47
2023-04-02T22:50:05.668Z,6.49
2023-04-02T22:53:05.583Z,6.39
2023-04-02T22:56:05.653Z,6.32
2023-04-02T22:59:05.622Z,6.25
2023-04-02T23:02:05.726Z,6.11
2023-04-02T23:05:05.683Z,6.23
2023-04-02T23:08:05.614Z,6.15
2023-04-02T23:11:05.649Z,6.07
2023-04-02T23:14:06.587Z,6.01
2023-04-02T23:17:06.641Z,5.98
2023-04-02T23:20:06.612Z,5.81
2023-04-02T23:23:06.598Z,5.87
2023-04-02T23:26:20.590Z,5.84
2023-04-02T23:29:20.646Z,5.70
2023-04-02T23:32:20.589Z,5.79
2023-04-02T23:35:20.645Z,5.69
2023-04-02T23:38:20.599Z,5.73
2023-04-02T23:41:20.672Z,5.67
2023-04-02T23:44:20.598Z,5.63
2023-04-02T23:47:20.660Z,5.58
2023-04-02T23:50:20.600Z,5.45
2023-04-02T23:53:20.635Z,5.50
2023-04-02T23:56:20.595Z,5.47
2023-04-02T23:59:20.598Z,5.51
